Time;durP1;ratioP1;P1;durP2;ratioP2;P2;SDS_P1;SDS_P2;PMS_P1;PMS_P2;Temp;Humidity;BMP_temperature;BMP_pressure;BME280_temperature;BME280_humidity;BME280_pressure;Samples;Min_cycle;Max_cycle;Signal;HPM_P1;HPM_P2
2021/05/24 00:02:08;;;;;;;5.60;5.30;;;;;;;27.97;67.46;100646.16;5064706;27;69511;-36
2021/05/24 00:04:39;;;;;;;6.35;5.78;;;;;;;28.22;67.83;100699.47;5063534;28;65949;-36
2021/05/24 00:07:09;;;;;;;6.70;6.25;;;;;;;28.18;68.76;100703.63;5069591;27;70216;-36
2021/05/24 00:09:40;;;;;;;4.60;4.22;;;;;;;28.20;67.35;100712.34;5069822;27;65460;-36
2021/05/24 00:12:10;;;;;;;7.82;4.18;;;;;;;28.15;67.47;100695.94;5075479;27;70410;-35
2021/05/24 00:14:45;;;;;;;6.13;4.03;;;;;;;28.29;67.25;100711.09;5075234;27;65230;-36
2021/05/24 00:17:15;;;;;;;11.02;4.43;;;;;;;28.36;67.71;100711.94;5072726;27;70076;-35
2021/05/24 00:19:46;;;;;;;8.77;4.30;;;;;;;28.44;66.79;100709.03;5069660;28;66041;-37
2021/05/24 00:22:17;;;;;;;12.95;4.47;;;;;;;28.54;66.84;100718.59;5066325;27;69829;-37
2021/05/24 00:24:47;;;;;;;8.60;3.78;;;;;;;28.57;66.45;100710.09;5073266;28;66024;-35
2021/05/24 00:27:17;;;;;;;7.07;3.70;;;;;;;28.69;66.29;100727.28;5075329;27;70054;-36
2021/05/24 00:29:48;;;;;;;4.07;3.75;;;;;;;28.75;66.35;100718.34;5073081;27;65966;-35
2021/05/24 00:32:18;;;;;;;5.25;3.92;;;;;;;28.72;65.82;100710.69;5072318;27;69301;-36
2021/05/24 00:34:48;;;;;;;13.05;3.65;;;;;;;28.90;65.48;100727.06;5069056;27;65658;-37
2021/05/24 00:37:23;;;;;;;3.50;3.30;;;;;;;28.96;64.99;100734.31;5074734;28;69750;-36
2021/05/24 00:39:53;;;;;;;3.50;3.20;;;;;;;28.99;65.09;100737.66;5060694;27;66120;-36
2021/05/24 00:42:24;;;;;;;4.97;3.17;;;;;;;29.11;64.55;100744.06;5075337;27;69940;-38
2021/05/24 00:44:55;;;;;;;3.55;3.35;;;;;;;29.15;64.16;100742.63;5062260;28;66013;-36
2021/05/24 00:47:25;;;;;;;3.20;3.00;;;;;;;29.17;63.97;100749.47;5071834;27;69823;-36
2021/05/24 00:49:55;;;;;;;4.28;3.17;;;;;;;29.20;63.88;100739.28;5073022;27;66400;-36
2021/05/24 00:52:26;;;;;;;8.93;2.83;;;;;;;29.27;63.95;100751.72;5070642;28;69146;-35
2021/05/24 00:54:56;;;;;;;3.15;2.78;;;;;;;29.33;63.36;100748.16;5069536;27;65262;-36
2021/05/24 00:57:27;;;;;;;2.47;2.33;;;;;;;29.36;63.38;100753.16;5070040;28;69845;-36
2021/05/24 00:59:58;;;;;;;2.80;2.60;;;;;;;29.38;63.26;100761.88;5072033;27;66924;-36
2021/05/24 01:02:29;;;;;;;3.10;2.90;;;;;;;29.39;63.15;100755.44;5057047;27;70329;-36
2021/05/24 01:04:59;;;;;;;5.75;3.30;;;;;;;29.48;63.38;100769.53;5068945;28;65259;-36
2021/05/24 01:07:31;;;;;;;4.80;2.65;;;;;;;29.50;62.88;100772.00;5070688;27;70311;-36
2021/05/24 01:10:03;;;;;;;3.50;2.95;;;;;;;29.53;63.27;100775.16;5072079;27;67696;-37
2021/05/24 01:12:33;;;;;;;5.70;2.70;;;;;;;29.54;63.39;100775.97;5076464;27;69183;-37
2021/05/24 01:15:05;;;;;;;3.17;2.88;;;;;;;29.50;62.98;100766.63;5071824;27;65919;-37
2021/05/24 01:17:38;;;;;;;4.10;3.90;;;;;;;29.60;62.98;100777.81;5075088;28;69861;-36
2021/05/24 01:20:10;;;;;;;5.70;5.15;;;;;;;29.63;63.17;100785.50;5064583;27;65995;-36
2021/05/24 01:22:48;;;;;;;5.03;4.72;;;;;;;29.65;63.23;100786.13;5065716;27;69125;-36
2021/05/24 01:25:18;;;;;;;6.13;3.85;;;;;;;29.63;62.68;100766.59;5071856;28;65570;-38
2021/05/24 01:27:49;;;;;;;4.28;3.97;;;;;;;29.71;62.50;100770.94;5071359;27;70135;-37
2021/05/24 01:30:22;;;;;;;4.65;4.32;;;;;;;29.75;62.50;100780.25;5067315;28;66600;-37
2021/05/24 01:32:53;;;;;;;4.57;4.28;;;;;;;29.75;62.32;100769.44;5067475;28;70336;-37
2021/05/24 01:35:23;;;;;;;4.78;4.45;;;;;;;29.78;62.46;100775.28;5066196;28;65134;-36
2021/05/24 01:37:54;;;;;;;4.40;4.10;;;;;;;29.80;62.86;100767.75;5067894;27;70209;-36
2021/05/24 01:40:25;;;;;;;4.32;4.03;;;;;;;29.74;62.65;100757.81;5055960;28;66925;-36
2021/05/24 01:42:58;;;;;;;4.32;4.07;;;;;;;29.83;62.25;100764.63;5074381;27;69095;-36
2021/05/24 01:45:28;;;;;;;4.35;3.95;;;;;;;29.90;62.32;100761.91;5073589;27;66037;-38
2021/05/24 01:47:59;;;;;;;3.65;3.45;;;;;;;29.94;62.31;100762.28;5075083;27;70036;-36
2021/05/24 01:50:30;;;;;;;4.50;4.20;;;;;;;29.94;61.85;100768.50;5058469;27;65082;-35
2021/05/24 01:53:02;;;;;;;3.40;3.20;;;;;;;29.98;62.24;100777.88;5073243;28;69880;-36
2021/05/24 01:55:34;;;;;;;4.22;3.92;;;;;;;30.02;61.84;100776.38;5064544;28;67151;-37
2021/05/24 01:58:06;;;;;;;4.50;4.20;;;;;;;30.03;61.99;100775.34;5067931;27;70003;-37
2021/05/24 02:00:36;;;;;;;4.15;3.85;;;;;;;30.04;62.16;100778.88;5073141;27;66171;-36
2021/05/24 02:03:09;;;;;;;4.43;4.13;;;;;;;30.00;61.87;100783.03;5064726;28;70089;-37
2021/05/24 02:05:48;;;;;;;4.00;3.75;;;;;;;30.10;62.21;100794.22;5068345;27;65927;-37
2021/05/24 02:08:18;;;;;;;4.28;4.07;;;;;;;30.11;61.93;100795.88;5067689;27;70351;-37
2021/05/24 02:10:49;;;;;;;3.97;3.75;;;;;;;30.14;61.91;100797.31;5058626;28;65669;-38
2021/05/24 02:13:22;;;;;;;4.13;3.88;;;;;;;30.13;61.48;100799.22;5065287;28;70470;-36
2021/05/24 02:15:55;;;;;;;4.05;3.75;;;;;;;30.06;61.73;100793.00;5072373;27;65544;-37
2021/05/24 02:18:29;;;;;;;3.67;3.47;;;;;;;30.06;61.40;100793.00;5073149;28;70460;-36
2021/05/24 02:21:03;;;;;;;4.10;3.80;;;;;;;30.14;62.12;100803.56;5062738;27;66476;-37
2021/05/24 02:23:34;;;;;;;3.60;3.40;;;;;;;30.11;61.69;100801.28;5070206;28;70128;-36
2021/05/24 02:26:04;;;;;;;3.70;3.50;;;;;;;30.14;62.04;100800.84;5055306;28;66841;-37
2021/05/24 02:28:35;;;;;;;4.07;3.80;;;;;;;30.08;61.52;100796.31;5071126;27;69994;-36
2021/05/24 02:31:06;;;;;;;6.45;3.88;;;;;;;30.14;61.97;100805.44;5067335;28;66665;-37
2021/05/24 02:33:37;;;;;;;3.40;3.20;;;;;;;30.18;61.95;100801.28;5059762;27;69852;-37
2021/05/24 02:36:16;;;;;;;4.18;3.90;;;;;;;30.20;61.16;100799.16;5065451;27;66173;-37
2021/05/24 02:38:49;;;;;;;3.60;3.40;;;;;;;30.16;61.31;100785.25;5067909;28;70199;-37
2021/05/24 02:41:20;;;;;;;4.55;4.25;;;;;;;30.23;61.14;100793.38;5070306;27;66660;-38
2021/05/24 02:43:50;;;;;;;4.00;3.75;;;;;;;30.23;61.44;100786.06;5065288;28;69967;-36
2021/05/24 02:46:22;;;;;;;3.42;3.22;;;;;;;30.25;61.45;100780.44;5065695;27;65860;-38
2021/05/24 02:48:54;;;;;;;3.70;3.50;;;;;;;30.28;61.33;100779.97;5071655;28;70174;-37
2021/05/24 02:51:28;;;;;;;3.35;3.15;;;;;;;30.24;61.41;100773.38;5065191;28;65411;-37
2021/05/24 02:54:03;;;;;;;3.40;3.20;;;;;;;30.33;61.30;100782.03;5068123;28;70527;-38
2021/05/24 02:56:37;;;;;;;3.85;3.65;;;;;;;30.36;60.59;100781.59;5062845;28;65921;-36
2021/05/24 02:59:07;;;;;;;3.73;3.53;;;;;;;30.36;61.26;100778.91;5068991;28;71020;-37
2021/05/24 03:01:38;;;;;;;4.00;3.70;;;;;;;30.40;61.02;100778.25;5071019;27;68238;-38
2021/05/24 03:04:11;;;;;;;3.75;3.55;;;;;;;30.45;61.01;100780.28;5059752;28;70368;-36
2021/05/24 03:06:46;;;;;;;4.00;3.70;;;;;;;30.21;60.51;100741.31;5064822;28;66368;-37
2021/05/24 03:09:17;;;;;;;6.10;3.85;;;;;;;30.50;61.03;100783.16;5068787;28;69404;-37
2021/05/24 03:11:48;;;;;;;3.50;3.20;;;;;;;30.54;60.30;100778.16;5068366;28;66434;-36
2021/05/24 03:14:18;;;;;;;3.63;3.42;;;;;;;30.56;60.76;100782.28;5053292;28;70199;-38
2021/05/24 03:16:54;;;;;;;3.53;3.33;;;;;;;30.58;60.85;100774.78;5073521;28;67222;-38
2021/05/24 03:19:26;;;;;;;3.78;3.42;;;;;;;30.59;60.38;100781.84;5066675;27;69264;-39
2021/05/24 03:21:57;;;;;;;3.38;3.08;;;;;;;30.60;60.77;100775.38;5072114;27;66701;-36
2021/05/24 03:24:31;;;;;;;3.70;3.40;;;;;;;30.62;60.76;100769.72;5066482;27;70218;-37
2021/05/24 03:27:02;;;;;;;3.33;3.13;;;;;;;30.59;60.38;100760.19;5064640;27;66199;-36
2021/05/24 03:29:37;;;;;;;3.33;3.03;;;;;;;30.59;60.23;100748.53;5067297;28;69498;-37
2021/05/24 03:32:19;;;;;;;;;;;;;;;30.36;60.89;100744.53;5069633;28;65935;-36
2021/05/24 03:34:51;;;;;;;2.97;2.78;;;;;;;30.58;60.69;100742.28;5063102;27;70155;-37
2021/05/24 03:37:25;;;;;;;3.28;2.88;;;;;;;30.70;60.55;100740.53;5070255;28;66057;-37
2021/05/24 03:39:57;;;;;;;2.90;2.70;;;;;;;30.70;60.18;100734.25;5068652;27;72519;-38
2021/05/24 03:42:34;;;;;;;3.33;3.13;;;;;;;30.66;60.17;100728.47;5064974;27;66807;-37
2021/05/24 03:45:11;;;;;;;6.25;2.70;;;;;;;30.43;59.78;100669.56;5061033;27;70828;-37
2021/05/24 03:47:45;;;;;;;2.90;2.70;;;;;;;30.79;60.08;100727.53;5071468;28;65306;-38
2021/05/24 03:50:21;;;;;;;3.20;2.90;;;;;;;30.86;59.84;100732.91;5070222;27;69790;-37
2021/05/24 03:52:54;;;;;;;2.88;2.67;;;;;;;30.88;59.67;100722.66;5062460;27;66225;-36
2021/05/24 03:55:28;;;;;;;2.67;2.47;;;;;;;30.71;59.61;100690.72;5068857;27;69888;-37
2021/05/24 03:58:01;;;;;;;2.83;2.63;;;;;;;30.90;59.71;100718.69;5062963;27;65202;-36
2021/05/24 04:00:34;;;;;;;3.03;2.83;;;;;;;30.91;59.82;100735.75;5071381;28;70569;-37
2021/05/24 04:03:05;;;;;;;5.23;2.53;;;;;;;30.91;59.61;100733.06;5058315;28;66410;-37
2021/05/24 04:05:42;;;;;;;3.20;3.00;;;;;;;30.92;59.87;100732.00;5071549;27;69731;-39
2021/05/24 04:08:13;;;;;;;;;;;;;;;30.65;60.19;100724.13;5059076;28;66057;-36
2021/05/24 04:10:58;;;;;;;3.10;2.90;;;;;;;30.90;59.83;100728.69;5069718;27;70737;-37
2021/05/24 04:13:28;;;;;;;2.78;2.58;;;;;;;30.92;60.12;100721.16;5069491;28;66494;-40
2021/05/24 04:15:59;;;;;;;2.83;2.72;;;;;;;30.91;60.04;100714.91;5068142;28;70536;-37
2021/05/24 04:18:33;;;;;;;2.97;2.78;;;;;;;30.94;59.78;100722.59;5070785;28;67127;-37
2021/05/24 04:21:17;;;;;;;3.22;2.72;;;;;;;30.97;60.09;100709.66;5056275;27;69939;-36
2021/05/24 04:24:03;;;;;;;4.45;3.00;;;;;;;30.98;60.06;100709.44;5072850;28;65911;-38
2021/05/24 04:26:35;;;;;;;2.85;2.65;;;;;;;30.98;59.63;100714.00;5071316;27;70363;-36
2021/05/24 04:29:06;;;;;;;3.33;2.88;;;;;;;30.98;59.75;100714.00;5073012;27;65226;-37
2021/05/24 04:31:37;;;;;;;2.88;2.67;;;;;;;30.93;59.41;100707.41;5076819;27;70279;-38
2021/05/24 04:34:09;;;;;;;2.58;2.40;;;;;;;31.00;59.64;100714.63;5062843;27;66115;-38
2021/05/24 04:36:39;;;;;;;2.67;2.47;;;;;;;30.99;59.55;100700.25;5040533;28;70391;-37
2021/05/24 04:39:10;;;;;;;3.28;3.08;;;;;;;30.98;59.57;100698.63;5067380;27;66930;-36
2021/05/24 04:41:42;;;;;;;2.80;2.60;;;;;;;31.02;59.72;100694.38;5068408;27;70856;-37
2021/05/24 04:44:19;;;;;;;3.10;2.90;;;;;;;31.02;59.64;100694.38;5074757;27;66322;-38
2021/05/24 04:46:54;;;;;;;2.85;2.65;;;;;;;31.03;60.07;100685.19;5069437;27;70183;-39
2021/05/24 04:49:27;;;;;;;3.30;3.00;;;;;;;31.03;59.72;100695.22;5065063;27;66411;-38
2021/05/24 04:52:02;;;;;;;2.40;2.30;;;;;;;31.02;59.71;100690.84;5070638;28;71691;-38
2021/05/24 04:54:33;;;;;;;2.70;2.50;;;;;;;31.00;59.28;100685.66;5065760;27;67023;-36
2021/05/24 04:57:04;;;;;;;2.75;2.65;;;;;;;30.98;59.98;100682.34;5068701;28;70391;-38
2021/05/24 04:59:34;;;;;;;2.38;2.28;;;;;;;31.02;59.84;100688.97;5072754;27;65434;-38
2021/05/24 05:02:08;;;;;;;2.72;2.53;;;;;;;31.02;59.66;100694.38;5069261;27;70512;-38
2021/05/24 05:04:39;;;;;;;3.10;2.90;;;;;;;31.01;59.98;100698.16;5070622;27;66314;-37
2021/05/24 05:07:28;;;;;;;2.92;2.72;;;;;;;31.01;59.98;100698.16;5074422;28;70793;-37
2021/05/24 05:10:20;;;;;;;2.80;2.60;;;;;;;30.99;59.71;100684.00;5070869;27;67190;-39
2021/05/24 05:13:09;;;;;;;2.70;2.50;;;;;;;30.95;60.05;100680.06;5070439;27;70057;-37
2021/05/24 05:15:59;;;;;;;2.78;2.65;;;;;;;30.98;60.29;100679.66;5075233;28;67943;-38
2021/05/24 05:18:49;;;;;;;3.15;2.95;;;;;;;30.98;60.26;100678.78;5068523;28;70582;-37
2021/05/24 05:21:21;;;;;;;2.63;2.47;;;;;;;30.97;59.70;100677.97;5067145;27;66382;-37
2021/05/24 05:23:53;;;;;;;3.10;2.90;;;;;;;30.98;59.75;100674.22;5061295;28;69471;-37
2021/05/24 05:26:24;;;;;;;3.10;2.85;;;;;;;30.98;60.18;100666.09;5068698;28;65917;-37
2021/05/24 05:28:55;;;;;;;2.80;2.70;;;;;;;30.95;59.91;100669.25;5067292;27;70047;-38
2021/05/24 05:31:27;;;;;;;;;;;;;;;30.69;60.63;100668.44;5072247;28;66002;-37
2021/05/24 05:33:59;;;;;;;3.42;3.22;;;;;;;30.92;60.09;100664.28;5070667;28;70693;-37
2021/05/24 05:36:37;;;;;;;2.90;2.70;;;;;;;30.96;60.07;100665.50;5065367;27;66160;-37
2021/05/24 05:39:28;;;;;;;3.17;2.97;;;;;;;30.96;59.98;100662.78;5067485;28;70928;-36
2021/05/24 05:42:20;;;;;;;3.30;3.10;;;;;;;30.95;60.31;100663.81;5072561;28;66245;-37
2021/05/24 05:45:13;;;;;;;3.08;2.88;;;;;;;30.96;60.10;100662.78;5068428;28;71147;-37
2021/05/24 05:48:05;;;;;;;4.25;3.42;;;;;;;30.95;60.28;100669.25;5071400;27;66870;-37
2021/05/24 05:50:49;;;;;;;3.00;2.80;;;;;;;30.95;60.34;100661.13;5067914;27;70613;-38
2021/05/24 05:53:22;;;;;;;4.43;3.08;;;;;;;30.95;60.16;100661.13;5072152;28;66127;-37
2021/05/24 05:55:53;;;;;;;2.85;2.72;;;;;;;30.93;59.78;100652.41;5067420;27;70234;-37
2021/05/24 05:58:27;;;;;;;3.25;2.97;;;;;;;30.93;60.41;100647.81;5069523;27;66501;-36
2021/05/24 06:01:05;;;;;;;3.33;3.03;;;;;;;30.96;60.07;100641.13;5070915;27;69374;-38
2021/05/24 06:03:41;;;;;;;3.13;2.83;;;;;;;30.97;59.83;100639.22;5073452;28;65325;-37
2021/05/24 06:06:15;;;;;;;4.10;3.03;;;;;;;30.87;60.31;100624.34;5066594;27;71492;-37
2021/05/24 06:08:49;;;;;;;3.42;3.22;;;;;;;30.96;59.75;100635.69;5074505;27;66115;-37
2021/05/24 06:11:21;;;;;;;3.35;2.85;;;;;;;30.97;59.76;100623.81;5063315;28;69252;-37
2021/05/24 06:13:52;;;;;;;2.85;2.75;;;;;;;30.92;60.26;100618.22;5067535;27;65793;-37
2021/05/24 06:16:27;;;;;;;2.95;2.85;;;;;;;30.92;60.28;100610.09;5068404;28;70099;-36
2021/05/24 06:19:03;;;;;;;4.07;3.05;;;;;;;30.95;60.26;100606.94;5065039;28;66416;-38
2021/05/24 06:21:37;;;;;;;3.30;3.10;;;;;;;30.94;59.83;100600.69;5071628;28;70084;-37
2021/05/24 06:24:10;;;;;;;3.55;3.35;;;;;;;30.93;60.09;100609.91;5064679;27;66383;-37
2021/05/24 06:26:43;;;;;;;3.25;2.97;;;;;;;30.94;60.44;100597.19;5056023;28;69869;-37
2021/05/24 06:29:22;;;;;;;3.15;2.95;;;;;;;30.95;60.20;100590.69;5076508;27;66150;-37
2021/05/24 06:31:56;;;;;;;3.70;3.40;;;;;;;30.97;60.11;100588.59;5056015;27;70252;-36
2021/05/24 06:34:26;;;;;;;;;;;;;;;30.68;60.74;100574.75;5058575;28;66355;-36
2021/05/24 06:36:57;;;;;;;5.55;3.45;;;;;;;30.93;60.49;100569.28;5064114;27;70409;-37
2021/05/24 06:39:35;;;;;;;3.40;3.10;;;;;;;30.98;60.33;100563.19;5056844;27;66441;-37
2021/05/24 06:42:09;;;;;;;3.15;2.88;;;;;;;30.99;59.69;100553.97;5069796;28;70368;-37
2021/05/24 06:44:44;;;;;;;3.53;3.33;;;;;;;31.02;60.19;100548.09;5056429;28;66370;-36
2021/05/24 06:47:22;;;;;;;3.40;3.10;;;;;;;31.04;60.24;100528.94;5042689;28;69811;-37
2021/05/24 06:49:53;;;;;;;3.50;3.30;;;;;;;31.04;59.75;100535.16;5061458;28;65694;-37
2021/05/24 06:52:30;;;;;;;3.58;3.38;;;;;;;31.05;59.93;100535.97;5069895;27;70506;-37
2021/05/24 06:55:03;;;;;;;3.55;3.35;;;;;;;31.08;60.14;100525.50;5075195;27;67630;-37
2021/05/24 06:57:40;;;;;;;3.95;3.20;;;;;;;31.11;60.05;100524.22;5060434;27;70195;-39
2021/05/24 07:00:11;;;;;;;5.90;3.25;;;;;;;31.12;60.36;100523.16;5070212;28;66882;-36
2021/05/24 07:02:47;;;;;;;3.38;3.08;;;;;;;31.13;60.22;100522.94;5063300;28;69583;-39
2021/05/24 07:05:19;;;;;;;3.67;3.00;;;;;;;31.12;60.41;100510.47;5073143;27;66200;-36
2021/05/24 07:07:53;;;;;;;3.10;2.90;;;;;;;31.08;59.68;100500.31;5067195;27;70208;-37
2021/05/24 07:10:24;;;;;;;3.35;3.15;;;;;;;31.10;59.90;100506.31;5053683;28;66164;-36
2021/05/24 07:12:55;;;;;;;3.22;3.03;;;;;;;31.21;60.23;100512.84;5072909;28;70010;-36
2021/05/24 07:15:36;;;;;;;2.90;2.70;;;;;;;31.22;60.14;100509.88;5061331;27;66722;-36
2021/05/24 07:18:09;;;;;;;4.03;3.40;;;;;;;31.24;59.41;100507.78;5071924;28;70026;-39
2021/05/24 07:20:44;;;;;;;3.50;3.25;;;;;;;31.24;60.14;100499.66;5068858;27;66037;-37
2021/05/24 07:23:15;;;;;;;3.58;3.38;;;;;;;31.26;59.74;100494.84;5069181;27;69963;-37
2021/05/24 07:25:52;;;;;;;3.28;2.97;;;;;;;31.28;59.45;100494.59;5069990;27;65693;-38
2021/05/24 07:28:24;;;;;;;4.43;3.83;;;;;;;31.29;59.84;100488.13;5063807;28;69449;-37
2021/05/24 07:30:56;;;;;;;3.00;2.80;;;;;;;31.31;60.20;100477.84;5069697;28;68343;-38
2021/05/24 07:33:28;;;;;;;3.35;3.15;;;;;;;31.25;59.71;100460.66;5072557;27;71710;-37
2021/05/24 07:36:12;;;;;;;3.45;3.17;;;;;;;31.27;59.89;100463.94;5061666;27;65892;-37
2021/05/24 07:38:45;;;;;;;3.35;2.95;;;;;;;31.35;59.60;100477.16;5070577;28;69893;-36
2021/05/24 07:41:26;;;;;;;3.50;3.30;;;;;;;31.38;59.57;100465.06;5056743;27;66851;-36
2021/05/24 07:43:57;;;;;;;3.55;3.35;;;;;;;31.37;59.43;100458.81;5062120;28;72314;-37
2021/05/24 07:46:29;;;;;;;3.40;3.20;;;;;;;31.37;59.78;100455.25;5062611;27;66221;-38
2021/05/24 07:49:00;;;;;;;4.93;3.38;;;;;;;31.37;59.58;100447.97;5044341;28;70248;-37
2021/05/24 07:51:32;;;;;;;3.60;3.30;;;;;;;31.37;59.27;100444.44;5068687;28;65726;-37
2021/05/24 07:54:03;;;;;;;3.47;3.22;;;;;;;31.44;59.62;100447.84;5044288;28;68663;-37
2021/05/24 07:56:35;;;;;;;3.53;3.30;;;;;;;31.38;59.59;100430.66;5066694;28;66532;-37
2021/05/24 07:59:06;;;;;;;3.63;3.30;;;;;;;31.46;59.43;100426.78;5072208;28;70311;-37
2021/05/24 08:01:43;;;;;;;3.45;3.25;;;;;;;31.43;59.44;100407.47;5064313;28;66683;-37
2021/05/24 08:04:13;;;;;;;3.25;3.05;;;;;;;31.48;59.30;100404.84;5071524;28;69878;-37
2021/05/24 08:06:44;;;;;;;3.05;2.85;;;;;;;31.52;59.08;100406.84;5071543;27;66342;-37
2021/05/24 08:09:15;;;;;;;3.20;2.90;;;;;;;31.51;59.22;100410.63;5067180;28;69973;-37
2021/05/24 08:11:46;;;;;;;;;;;;;;;31.27;59.61;100417.88;5065678;28;67226;-36
2021/05/24 08:14:21;;;;;;;3.13;2.92;;;;;;;31.52;59.26;100406.03;5076959;27;70182;-36
2021/05/24 08:16:54;;;;;;;3.72;3.50;;;;;;;31.56;59.03;100407.19;5066668;28;65431;-36
2021/05/24 08:19:28;;;;;;;3.33;3.13;;;;;;;31.58;58.84;100410.50;5069903;28;69866;-36
2021/05/24 08:22:00;;;;;;;3.35;2.97;;;;;;;31.58;59.08;100411.31;5054869;28;66059;-36
2021/05/24 08:24:34;;;;;;;3.28;3.03;;;;;;;31.59;59.19;100415.69;5057843;28;70427;-37
2021/05/24 08:27:05;;;;;;;3.33;3.13;;;;;;;31.53;59.50;100407.66;5056411;28;65973;-37
2021/05/24 08:29:36;;;;;;;3.17;2.97;;;;;;;31.60;59.15;100422.75;5071031;28;71055;-37
2021/05/24 08:32:15;;;;;;;3.20;3.00;;;;;;;31.49;59.07;100407.31;5074145;27;66575;-37
2021/05/24 08:34:52;;;;;;;2.67;2.47;;;;;;;31.66;59.40;100436.44;5069579;27;70314;-36
2021/05/24 08:37:22;;;;;;;3.28;2.75;;;;;;;31.62;59.23;100422.50;5076827;27;66198;-36
2021/05/24 08:39:54;;;;;;;2.83;2.67;;;;;;;31.67;59.03;100436.19;5058644;28;69843;-37
2021/05/24 08:42:30;;;;;;;3.07;2.87;;;;;;;31.68;59.16;100434.28;5077200;27;66286;-36
2021/05/24 08:45:06;;;;;;;3.65;3.35;;;;;;;31.69;58.75;100427.84;5065544;28;70590;-36
2021/05/24 08:47:37;;;;;;;;;;;;;;;31.43;60.04;100443.50;5070625;28;66714;-36
2021/05/24 08:50:14;;;;;;;3.38;3.17;;;;;;;31.30;58.98;100384.06;5056261;28;69046;-36
2021/05/24 08:52:44;;;;;;;;;;;;;;;31.45;59.52;100452.22;5057573;28;65839;-36
2021/05/24 08:55:17;;;;;;;3.30;3.10;;;;;;;31.64;59.40;100447.50;5068985;27;70825;-36
2021/05/24 08:57:49;;;;;;;3.70;3.40;;;;;;;31.74;58.83;100457.78;5064344;27;66780;-36
2021/05/24 09:00:21;;;;;;;2.85;2.65;;;;;;;31.74;59.11;100453.19;5065736;27;69843;-38
2021/05/24 09:02:52;;;;;;;;;;;;;;;31.49;59.21;100461.53;5070983;28;66439;-37
2021/05/24 09:05:33;;;;;;;2.95;2.72;;;;;;;31.68;59.28;100450.56;5061247;28;70733;-37
2021/05/24 09:08:04;;;;;;;3.33;3.13;;;;;;;31.77;58.95;100457.31;5070655;28;66847;-37
2021/05/24 09:10:57;;;;;;;3.17;2.97;;;;;;;31.77;59.03;100457.31;5062333;27;70489;-37
2021/05/24 09:13:32;;;;;;;3.42;3.13;;;;;;;31.70;58.94;100440.31;5067391;27;66740;-36
2021/05/24 09:16:07;;;;;;;2.75;2.65;;;;;;;31.77;59.21;100454.59;5071429;28;70239;-37
2021/05/24 09:18:37;;;;;;;3.22;3.03;;;;;;;31.79;59.44;100463.31;5053408;28;65553;-37
2021/05/24 09:21:12;;;;;;;2.97;2.88;;;;;;;31.76;59.18;100455.63;5058883;28;70179;-36
2021/05/24 09:23:46;;;;;;;3.08;2.88;;;;;;;31.80;59.38;100467.69;5074662;27;66418;-37
2021/05/24 09:26:20;;;;;;;3.08;2.88;;;;;;;31.79;59.10;100460.63;5076679;27;69795;-37
2021/05/24 09:28:52;;;;;;;3.53;3.28;;;;;;;31.39;59.30;100390.81;5066832;27;65458;-37
2021/05/24 09:31:31;;;;;;;3.28;3.08;;;;;;;31.71;59.00;100455.53;5058439;28;69404;-36
2021/05/24 09:34:06;;;;;;;3.30;3.10;;;;;;;31.81;59.41;100482.88;5060588;28;65551;-37
2021/05/24 09:36:37;;;;;;;3.08;2.88;;;;;;;31.81;59.12;100480.16;5071208;27;68997;-37
2021/05/24 09:39:11;;;;;;;3.15;2.95;;;;;;;31.51;59.28;100435.03;5070807;28;66120;-37
2021/05/24 09:41:44;;;;;;;3.85;3.05;;;;;;;31.76;59.21;100482.75;5064026;28;70093;-37
2021/05/24 09:44:23;;;;;;;3.25;3.05;;;;;;;31.50;58.61;100443.38;5060164;27;66481;-37
2021/05/24 09:46:54;;;;;;;3.05;2.85;;;;;;;31.79;59.03;100499.41;5063403;28;70033;-37
2021/05/24 09:49:31;;;;;;;3.13;2.90;;;;;;;31.74;59.00;100495.75;5074302;27;66069;-38
2021/05/24 09:52:02;;;;;;;2.75;2.65;;;;;;;31.80;59.13;100516.50;5065073;27;68415;-37
2021/05/24 09:54:35;;;;;;;3.90;3.50;;;;;;;31.74;59.37;100512.84;5068490;28;66073;-37
2021/05/24 09:57:12;;;;;;;4.05;3.35;;;;;;;31.78;59.04;100526.75;5052169;28;69353;-37
2021/05/24 09:59:43;;;;;;;3.38;2.83;;;;;;;31.79;58.84;100531.13;5059416;28;66034;-37
2021/05/24 10:02:26;;;;;;;3.70;3.40;;;;;;;31.75;59.35;100528.03;5062480;28;69267;-36
2021/05/24 10:05:00;;;;;;;3.03;2.83;;;;;;;31.38;59.30;100455.03;5075687;27;65376;-37
2021/05/24 10:07:31;;;;;;;2.83;2.65;;;;;;;31.69;59.13;100506.47;5072485;27;71076;-37
2021/05/24 10:10:02;;;;;;;3.80;3.60;;;;;;;31.75;59.31;100519.09;5068735;27;65457;-38
2021/05/24 10:12:39;;;;;;;4.15;3.20;;;;;;;31.75;59.19;100519.09;5074385;27;70123;-37
2021/05/24 10:15:13;;;;;;;4.00;3.60;;;;;;;31.75;59.66;100513.66;5065427;28;66356;-37
2021/05/24 10:17:51;;;;;;;3.47;3.25;;;;;;;31.74;59.30;100512.84;5071283;27;70210;-37
2021/05/24 10:20:21;;;;;;;3.50;3.30;;;;;;;31.74;59.72;100512.84;5065936;28;65371;-37
2021/05/24 10:23:07;;;;;;;3.63;3.33;;;;;;;31.73;59.54;100510.34;5061485;27;69995;-37
2021/05/24 10:25:39;;;;;;;3.15;2.95;;;;;;;31.74;59.22;100506.59;5075179;27;65223;-37
2021/05/24 10:28:10;;;;;;;3.77;3.27;;;;;;;31.69;59.46;100499.16;5059479;27;69917;-37
2021/05/24 10:31:02;;;;;;;4.28;3.70;;;;;;;31.43;59.45;100457.06;5076376;27;66020;-38
2021/05/24 10:33:40;;;;;;;4.05;3.75;;;;;;;31.68;59.47;100502.94;5067657;27;69155;-38
2021/05/24 10:36:22;;;;;;;3.60;3.40;;;;;;;31.69;59.73;100510.00;5075897;28;66151;-38
2021/05/24 10:39:06;;;;;;;3.83;3.57;;;;;;;31.43;59.33;100484.16;5071077;27;70721;-37
2021/05/24 10:42:05;;;;;;;4.65;4.35;;;;;;;31.55;60.34;100503.97;5073641;27;65861;-36
2021/05/24 10:44:45;;;;;;;7.75;6.57;;;;;;;31.57;60.69;100512.72;5066598;28;70265;-37
2021/05/24 10:47:29;;;;;;;10.63;9.13;;;;;;;31.52;61.06;100499.03;5063860;27;66035;-37
2021/05/24 10:50:05;;;;;;;18.17;10.15;;;;;;;31.53;60.89;100505.25;5066114;27;69240;-33
2021/05/24 10:52:40;;;;;;;16.52;14.23;;;;;;;31.47;61.47;100501.59;5059259;28;66403;-34
2021/05/24 10:55:27;;;;;;;18.23;12.70;;;;;;;31.46;61.39;100505.38;5050813;28;69689;-33
2021/05/24 10:58:14;;;;;;;15.82;11.85;;;;;;;31.24;60.79;100469.03;5070886;27;65191;-33
2021/05/24 11:00:55;;;;;;;11.45;10.23;;;;;;;31.28;61.19;100475.63;5055310;28;70124;-34
2021/05/24 11:03:25;;;;;;;22.33;14.65;;;;;;;31.50;61.33;100522.00;5067512;28;66254;-35
2021/05/24 11:06:10;;;;;;;;;;;;;;;31.29;61.77;100526.06;5055358;28;69864;-33
2021/05/24 11:09:06;;;;;;;26.05;17.88;;;;;;;31.46;61.39;100537.91;5054666;28;66526;-33
2021/05/24 11:11:39;;;;;;;25.55;21.83;;;;;;;31.44;61.10;100534.59;5061981;27;69273;-36
2021/05/24 11:14:12;;;;;;;36.65;24.55;;;;;;;31.45;61.40;100555.22;5053226;28;65409;-33
2021/05/24 11:17:00;;;;;;;25.70;19.13;;;;;;;31.40;61.68;100555.09;5060930;28;69745;-34
2021/05/24 11:19:31;;;;;;;31.58;25.40;;;;;;;31.48;61.51;100564.78;5059735;27;66257;-34
2021/05/24 11:22:44;;;;;;;29.83;20.30;;;;;;;31.36;62.31;100575.59;5069782;27;69976;-33
2021/05/24 11:28:14;;;;;;;14.35;13.15;;;;;;;31.42;61.62;100590.91;5065442;28;70093;-34
2021/05/24 11:30:59;;;;;;;21.90;16.23;;;;;;;31.45;62.09;100597.75;5067843;28;67300;-33
2021/05/24 11:33:47;;;;;;;36.20;28.35;;;;;;;31.19;62.47;100563.72;5066764;27;70299;-34
2021/05/24 11:36:39;;;;;;;24.48;20.85;;;;;;;31.44;62.70;100623.22;5075356;27;64525;-33
2021/05/24 11:39:17;;;;;;;22.00;17.67;;;;;;;31.47;62.72;100630.91;5076162;27;69341;-35
2021/05/24 11:42:17;;;;;;;20.67;14.82;;;;;;;31.49;63.49;100640.47;5055638;27;65445;-33
2021/05/24 11:44:49;;;;;;;15.75;14.35;;;;;;;31.46;64.40;100640.91;5073558;28;70013;-33
2021/05/24 11:47:24;;;;;;;15.25;13.68;;;;;;;31.51;63.98;100657.31;5077374;27;66510;-33
2021/05/24 11:50:01;;;;;;;14.65;13.20;;;;;;;31.50;64.37;100652.94;5060398;28;69810;-33
2021/05/24 11:52:35;;;;;;;21.98;13.40;;;;;;;31.52;64.77;100660.84;5068189;27;66790;-36
2021/05/24 11:55:14;;;;;;;12.35;11.35;;;;;;;31.26;64.95;100624.91;5073601;27;69811;-34
2021/05/24 11:57:46;;;;;;;29.33;23.83;;;;;;;31.50;65.47;100671.91;5063736;27;66474;-33
2021/05/24 12:00:24;;;;;;;97.43;66.03;;;;;;;31.46;65.42;100668.03;5061636;28;69305;-34
2021/05/24 12:03:02;;;;;;;120.97;74.63;;;;;;;31.15;66.40;100623.78;5071672;28;66126;-34
2021/05/24 12:05:33;;;;;;;110.80;70.55;;;;;;;31.30;65.79;100665.91;5057901;28;69893;-34